Impacts TAF Board INFO
FOR SITUATIONAL AWARENESS. NOT TO BE USED FOR FLIGHT PLANNING PURPOSES.
IDs:

KMKT - Mankato Rgnl, MN, US

Issued at 1731 UTC 19 Oct 2017
Updated at 1959 UTC 19 Oct 2017
Potential Impact None Slight Moderate High
Time<<20/08Z 20/09Z 20/10Z 20/11Z 20/12Z 20/13Z 20/14Z 20/15Z 20/16Z 20/17Z 20/18Z 20/19Z 20/20Z>>
Type PRVL PRVL PRVL PRVL PRVL PRVL PRVL PRVL PRVL PRVL
VIS >6 >6 >6 >6 >6 >6 >6 >6 >6 >6
CIG -- -- -- -- -- -- -- -- -- --
Cover SKC SKC SKC SKC SKC SKC FEW FEW FEW FEW
FltCat VFR VFR VFR VFR VFR VFR VFR VFR VFR VFR
WX -- -- -- -- -- -- -- -- -- --
WDir 170 170 170 170 170 170 180 180 180 180
WSpd 10 10 10 10 10 10 16 16 16 16
WGst -- -- -- -- -- -- 24 24 24 24

Raw TAF
KMKT 191731Z 1918/2018 18012KT P6SM FEW250
  FM200300 17010KT P6SM SKC
  FM201400 18016G24KT P6SM FEW250


METAR Board

FOR SITUATIONAL AWARENESS. NOT TO BE USED FOR FLIGHT PLANNING PURPOSES.